Time;durP1;ratioP1;P1;durP2;ratioP2;P2;SDS_P1;SDS_P2;PMS_P1;PMS_P2;Temp;Humidity;BMP_temperature;BMP_pressure;BME280_temperature;BME280_humidity;BME280_pressure;Samples;Min_cycle;Max_cycle;Signal;HPM_P1;HPM_P2
2023/04/15 00:01:36;;;;;;;11.60;6.20;;;6.50;99.90;;;;;;4953183;28;20580;-75
2023/04/15 00:04:03;;;;;;;13.67;5.40;;;6.50;99.90;;;;;;4962731;28;20832;-74
2023/04/15 00:06:31;;;;;;;13.03;6.10;;;6.50;99.90;;;;;;4960222;28;20465;-75
2023/04/15 00:08:58;;;;;;;9.47;5.23;;;6.40;99.90;;;;;;4962529;28;20853;-75
2023/04/15 00:11:24;;;;;;;19.53;5.37;;;6.40;99.90;;;;;;4961877;28;20557;-75
2023/04/15 00:13:51;;;;;;;12.90;5.23;;;6.40;99.90;;;;;;4951267;28;20472;-75
2023/04/15 00:16:18;;;;;;;10.40;5.70;;;6.40;99.90;;;;;;4951369;28;20465;-74
2023/04/15 00:18:44;;;;;;;11.50;5.17;;;6.40;99.90;;;;;;4951104;28;21007;-75
2023/04/15 00:21:11;;;;;;;12.10;6.23;;;6.50;99.90;;;;;;4961378;28;20551;-75
2023/04/15 00:23:39;;;;;;;8.00;6.13;;;6.50;99.90;;;;;;4954100;28;20465;-74
2023/04/15 00:26:06;;;;;;;7.73;4.70;;;6.50;99.90;;;;;;4956857;28;20460;-75
2023/04/15 00:28:32;;;;;;;8.90;5.77;;;6.50;99.90;;;;;;4950940;28;20838;-75
2023/04/15 00:30:59;;;;;;;9.30;5.50;;;6.60;99.90;;;;;;4950837;28;21243;-74
2023/04/15 00:33:26;;;;;;;12.13;5.93;;;6.60;99.90;;;;;;4959243;28;20470;-75
2023/04/15 00:35:52;;;;;;;10.83;6.40;;;6.50;99.90;;;;;;4960248;28;20461;-75
2023/04/15 00:38:19;;;;;;;10.90;6.63;;;6.60;99.90;;;;;;4961822;28;20457;-75
2023/04/15 00:40:47;;;;;;;16.13;7.10;;;6.50;99.90;;;;;;4951070;28;20495;-75
2023/04/15 00:43:15;;;;;;;15.57;6.73;;;6.50;99.90;;;;;;4951126;28;20454;-75
2023/04/15 00:45:42;;;;;;;10.60;6.43;;;6.40;99.90;;;;;;4950251;28;20462;-75
2023/04/15 00:48:09;;;;;;;11.17;6.40;;;6.40;99.90;;;;;;4953064;28;20470;-75
2023/04/15 00:50:35;;;;;;;12.00;6.70;;;6.40;99.90;;;;;;4957205;28;20454;-75
2023/04/15 00:53:02;;;;;;;9.13;7.03;;;6.40;99.90;;;;;;4951079;28;20511;-75
2023/04/15 00:55:29;;;;;;;11.97;7.20;;;6.30;99.90;;;;;;4950250;28;20901;-75
2023/04/15 00:57:57;;;;;;;8.90;6.83;;;6.30;99.90;;;;;;4970891;28;20459;-75
2023/04/15 01:00:24;;;;;;;13.57;7.60;;;6.30;99.90;;;;;;4953669;28;20454;-75
2023/04/15 01:02:51;;;;;;;16.93;7.70;;;6.30;99.90;;;;;;4950535;28;20501;-76
2023/04/15 01:05:18;;;;;;;14.90;7.37;;;6.30;99.90;;;;;;4950360;28;20461;-76
2023/04/15 01:07:45;;;;;;;15.17;7.03;;;6.20;99.90;;;;;;4950673;28;20459;-76
2023/04/15 01:10:12;;;;;;;13.67;6.67;;;6.20;99.90;;;;;;4958707;28;20460;-76
2023/04/15 01:12:38;;;;;;;9.63;7.07;;;6.20;99.90;;;;;;4951241;28;20912;-76
2023/04/15 01:15:09;;;;;;;8.17;6.70;;;6.20;99.90;;;;;;4953768;28;20589;-74
2023/04/15 01:17:36;;;;;;;15.30;7.90;;;6.20;99.90;;;;;;4958055;28;20459;-75
2023/04/15 01:20:04;;;;;;;8.97;6.60;;;6.20;99.90;;;;;;4950789;28;20468;-75
2023/04/15 01:22:32;;;;;;;14.07;7.33;;;6.20;99.90;;;;;;4958282;28;20677;-75
2023/04/15 01:25:07;;;;;;;12.37;7.43;;;6.10;99.90;;;;;;4950141;28;20465;-75
2023/04/15 01:27:35;;;;;;;8.10;6.80;;;6.10;99.90;;;;;;4951996;28;20485;-75
2023/04/15 01:30:04;;;;;;;10.00;6.97;;;6.10;99.90;;;;;;4949998;28;20875;-75
2023/04/15 01:32:30;;;;;;;10.83;7.00;;;6.10;99.90;;;;;;4950059;28;20559;-75
2023/04/15 01:34:57;;;;;;;10.63;6.60;;;6.10;99.90;;;;;;4960262;28;20472;-75
2023/04/15 01:37:24;;;;;;;9.00;6.07;;;6.10;99.90;;;;;;4961109;28;20876;-75
2023/04/15 01:39:51;;;;;;;10.53;6.80;;;6.20;99.90;;;;;;4949063;28;21066;-75
2023/04/15 01:42:18;;;;;;;12.57;6.70;;;6.10;99.90;;;;;;4950010;28;20476;-75
2023/04/15 01:44:46;;;;;;;17.53;6.90;;;6.10;99.90;;;;;;4949039;28;20887;-75
2023/04/15 01:47:13;;;;;;;7.23;6.40;;;6.10;99.90;;;;;;4950187;28;20507;-75
2023/04/15 01:49:39;;;;;;;10.07;6.70;;;6.10;99.90;;;;;;4957119;28;20473;-75
2023/04/15 01:52:06;;;;;;;7.77;6.97;;;6.10;99.90;;;;;;4955533;28;20493;-75
2023/04/15 01:54:33;;;;;;;10.50;6.53;;;6.10;99.90;;;;;;4949635;28;20454;-75
2023/04/15 01:57:00;;;;;;;14.70;7.40;;;6.00;99.90;;;;;;4951481;28;21020;-75
2023/04/15 01:59:27;;;;;;;10.73;6.83;;;6.00;99.90;;;;;;4949785;28;20933;-75
2023/04/15 02:01:56;;;;;;;12.53;6.43;;;6.00;99.90;;;;;;4952329;28;20475;-75
2023/04/15 02:04:23;;;;;;;8.07;6.67;;;5.90;99.90;;;;;;4957082;28;20454;-75
2023/04/15 02:06:50;;;;;;;17.87;7.37;;;5.90;99.90;;;;;;4955956;28;20454;-75
2023/04/15 02:09:16;;;;;;;8.13;6.60;;;5.90;99.90;;;;;;4949596;28;20482;-75
2023/04/15 02:11:43;;;;;;;9.50;6.70;;;5.90;99.90;;;;;;4950548;28;20512;-75
2023/04/15 02:14:10;;;;;;;11.00;7.10;;;5.80;99.90;;;;;;4949798;28;20450;-75
2023/04/15 02:16:36;;;;;;;9.93;6.23;;;5.80;99.90;;;;;;4949369;28;20506;-75
2023/04/15 02:19:04;;;;;;;10.00;6.70;;;5.80;99.90;;;;;;4949487;28;21116;-75
2023/04/15 02:21:31;;;;;;;10.10;6.63;;;5.80;99.90;;;;;;4949876;28;20478;-75
2023/04/15 02:23:58;;;;;;;9.43;5.90;;;5.80;99.90;;;;;;4949797;28;20469;-75
2023/04/15 02:26:24;;;;;;;9.40;6.53;;;5.80;99.90;;;;;;4949620;28;20544;-75
2023/04/15 02:28:51;;;;;;;8.80;6.60;;;5.80;99.90;;;;;;4956253;28;20471;-75
2023/04/15 02:31:18;;;;;;;9.53;6.77;;;5.80;99.90;;;;;;4949760;28;20478;-75
2023/04/15 02:33:45;;;;;;;8.33;6.77;;;5.80;99.90;;;;;;4949066;28;20520;-75
2023/04/15 02:36:13;;;;;;;19.30;8.10;;;5.80;99.90;;;;;;4949062;28;21216;-75
2023/04/15 02:38:41;;;;;;;13.03;6.50;;;5.80;99.90;;;;;;4957489;28;20466;-74
2023/04/15 02:41:09;;;;;;;10.13;6.67;;;5.90;99.90;;;;;;4949350;28;20888;-74
2023/04/15 02:43:35;;;;;;;6.60;5.80;;;5.90;99.90;;;;;;4949182;28;20453;-74
2023/04/15 02:46:02;;;;;;;7.03;6.10;;;5.90;99.90;;;;;;4956347;28;21178;-74
2023/04/15 02:48:28;;;;;;;9.83;6.20;;;5.80;99.90;;;;;;4957095;28;20467;-74
2023/04/15 02:51:18;;;;;;;11.83;6.97;;;5.80;99.90;;;;;;4963757;28;20482;-74
2023/04/15 02:53:45;;;;;;;14.10;5.97;;;5.80;99.90;;;;;;4964341;28;20485;-75
2023/04/15 02:56:14;;;;;;;9.60;6.20;;;5.80;99.90;;;;;;4965292;28;20508;-75
2023/04/15 02:58:41;;;;;;;10.00;6.83;;;5.80;99.90;;;;;;4954640;28;20471;-75
2023/04/15 03:01:08;;;;;;;8.83;5.90;;;5.70;99.90;;;;;;4960270;28;20945;-74
2023/04/15 03:03:34;;;;;;;10.97;6.37;;;5.70;99.90;;;;;;4957938;28;20463;-75
2023/04/15 03:06:01;;;;;;;10.00;6.53;;;5.60;99.90;;;;;;4952384;28;20848;-74
2023/04/15 03:08:29;;;;;;;14.10;6.67;;;5.60;99.90;;;;;;4952489;28;20460;-75
2023/04/15 03:10:59;;;;;;;6.80;5.03;;;5.50;99.90;;;;;;4952047;28;20528;-75
2023/04/15 03:13:26;;;;;;;6.77;5.63;;;5.30;99.90;;;;;;4952152;28;20485;-75
2023/04/15 03:15:52;;;;;;;7.43;5.23;;;5.10;99.90;;;;;;4951801;28;21109;-75
2023/04/15 03:18:19;;;;;;;8.73;5.40;;;4.90;99.90;;;;;;4958471;28;20525;-75
2023/04/15 03:20:46;;;;;;;8.77;5.67;;;4.80;99.90;;;;;;4953355;28;20945;-75
2023/04/15 03:23:12;;;;;;;7.40;5.57;;;4.70;99.90;;;;;;4958567;28;20449;-75
2023/04/15 03:25:40;;;;;;;6.97;5.83;;;4.70;99.90;;;;;;4951755;28;20454;-75
2023/04/15 03:28:07;;;;;;;9.23;5.90;;;4.70;99.90;;;;;;4953005;28;20467;-75
2023/04/15 03:30:33;;;;;;;6.17;5.57;;;4.70;99.90;;;;;;4951813;28;21062;-75
2023/04/15 03:33:00;;;;;;;8.53;5.50;;;4.70;99.90;;;;;;4951729;28;20496;-76
2023/04/15 03:35:27;;;;;;;8.27;5.73;;;4.70;99.90;;;;;;4951959;28;20461;-75
2023/04/15 03:37:53;;;;;;;9.10;6.20;;;4.70;99.90;;;;;;4960101;28;20507;-75
2023/04/15 03:40:21;;;;;;;8.03;6.50;;;4.70;99.90;;;;;;4959972;28;20453;-75
2023/04/15 03:42:49;;;;;;;9.23;6.13;;;4.70;99.90;;;;;;4951766;28;20473;-75
2023/04/15 03:45:16;;;;;;;8.40;5.80;;;4.80;99.90;;;;;;4951461;28;20462;-75
2023/04/15 03:47:42;;;;;;;10.13;6.27;;;4.80;99.90;;;;;;4954284;28;20467;-75
2023/04/15 03:50:10;;;;;;;13.47;6.80;;;4.80;99.90;;;;;;4955187;28;20457;-75
2023/04/15 03:52:37;;;;;;;10.37;5.93;;;4.80;99.90;;;;;;4960921;28;20492;-75
2023/04/15 03:55:04;;;;;;;8.27;6.33;;;4.80;99.90;;;;;;4951707;28;20875;-75
2023/04/15 03:57:30;;;;;;;7.00;5.73;;;4.80;99.90;;;;;;4953948;28;20454;-75
2023/04/15 03:59:58;;;;;;;9.87;6.30;;;4.80;99.90;;;;;;4952463;28;20973;-75
2023/04/15 04:02:26;;;;;;;9.40;6.17;;;4.70;99.90;;;;;;4961007;28;20465;-75
2023/04/15 04:04:53;;;;;;;8.07;6.40;;;4.70;99.90;;;;;;4953170;28;20458;-75
2023/04/15 04:07:20;;;;;;;9.10;6.17;;;4.80;99.90;;;;;;4956549;28;20472;-75
2023/04/15 04:09:46;;;;;;;7.27;6.20;;;4.80;99.90;;;;;;4951506;28;20878;-75
2023/04/15 04:12:13;;;;;;;10.90;6.37;;;4.80;99.90;;;;;;4954496;28;20989;-75
2023/04/15 04:14:40;;;;;;;9.77;6.90;;;4.80;99.90;;;;;;4952254;28;20456;-75
2023/04/15 04:17:08;;;;;;;7.93;6.13;;;4.90;99.90;;;;;;4954914;28;20455;-75
2023/04/15 04:19:34;;;;;;;11.93;6.03;;;4.90;99.90;;;;;;4957766;28;20460;-75
2023/04/15 04:22:01;;;;;;;8.17;5.97;;;4.80;99.90;;;;;;4951111;28;20565;-75
2023/04/15 04:24:28;;;;;;;8.90;7.50;;;4.80;99.90;;;;;;4951468;28;20458;-75
2023/04/15 04:26:55;;;;;;;8.77;7.10;;;4.80;99.90;;;;;;4958724;28;20470;-75
2023/04/15 04:29:22;;;;;;;13.70;6.97;;;4.80;99.90;;;;;;4955943;28;20901;-75
2023/04/15 04:31:48;;;;;;;15.93;7.57;;;4.90;99.90;;;;;;4950790;28;20478;-75
2023/04/15 04:34:16;;;;;;;9.73;7.10;;;4.90;99.90;;;;;;4950857;28;20492;-75
2023/04/15 04:36:43;;;;;;;11.03;7.37;;;5.00;99.90;;;;;;4950993;28;20531;-75
2023/04/15 04:39:09;;;;;;;9.93;6.40;;;5.00;99.90;;;;;;4954380;28;20458;-75
2023/04/15 04:41:36;;;;;;;13.47;6.90;;;5.00;99.90;;;;;;4951312;28;20527;-74
2023/04/15 04:44:03;;;;;;;10.83;6.57;;;5.00;99.90;;;;;;4958848;28;20536;-76
2023/04/15 04:46:29;;;;;;;6.53;5.73;;;5.00;99.90;;;;;;4956241;28;20466;-77
2023/04/15 04:48:56;;;;;;;10.67;6.50;;;5.00;99.90;;;;;;4958577;28;20463;-76
2023/04/15 04:51:25;;;;;;;7.47;5.90;;;5.00;99.90;;;;;;4961381;28;20479;-76
2023/04/15 04:53:51;;;;;;;10.33;6.87;;;5.00;99.90;;;;;;4953779;28;20494;-77
2023/04/15 04:56:18;;;;;;;6.63;6.00;;;5.00;99.90;;;;;;4956616;28;20462;-76
2023/04/15 04:58:45;;;;;;;8.83;6.40;;;5.10;99.90;;;;;;4953439;28;20876;-77
2023/04/15 05:01:12;;;;;;;10.70;6.90;;;5.10;99.90;;;;;;4958559;28;20492;-76
2023/04/15 05:03:39;;;;;;;8.33;6.27;;;5.00;99.90;;;;;;4953868;28;20549;-76
2023/04/15 05:06:07;;;;;;;7.83;6.53;;;5.00;99.90;;;;;;4950655;28;20451;-76
2023/04/15 05:08:35;;;;;;;11.67;6.00;;;5.00;99.90;;;;;;4950494;28;20469;-76
2023/04/15 05:11:02;;;;;;;11.13;6.77;;;5.00;99.90;;;;;;4950504;28;20840;-76
2023/04/15 05:13:29;;;;;;;8.53;6.73;;;5.00;99.90;;;;;;4950144;28;20544;-76
2023/04/15 05:15:56;;;;;;;10.30;6.33;;;5.00;99.90;;;;;;4951178;28;21010;-76
2023/04/15 05:18:23;;;;;;;8.33;6.23;;;5.00;99.90;;;;;;4950274;28;20878;-76
2023/04/15 05:20:50;;;;;;;8.13;5.93;;;5.00;99.90;;;;;;4950210;28;20454;-76
2023/04/15 05:23:17;;;;;;;9.60;6.53;;;5.00;99.90;;;;;;4958267;28;20987;-75
2023/04/15 05:25:45;;;;;;;15.00;7.30;;;5.10;99.90;;;;;;4949905;28;20545;-76
2023/04/15 05:28:12;;;;;;;10.80;7.10;;;5.10;99.90;;;;;;4951294;28;21178;-75
2023/04/15 05:30:39;;;;;;;11.17;7.50;;;5.20;99.90;;;;;;4957852;28;20466;-75
2023/04/15 05:33:06;;;;;;;11.27;7.27;;;5.30;99.90;;;;;;4950169;28;20550;-75
2023/04/15 05:35:32;;;;;;;9.80;6.53;;;5.30;99.90;;;;;;4950988;28;20532;-75
2023/04/15 05:37:59;;;;;;;9.20;6.60;;;5.40;99.90;;;;;;4957776;28;21223;-76
2023/04/15 05:40:26;;;;;;;9.27;7.10;;;5.50;99.90;;;;;;4949998;28;20446;-75
2023/04/15 05:42:54;;;;;;;11.50;7.20;;;5.60;99.90;;;;;;4949948;28;20538;-75
2023/04/15 05:45:20;;;;;;;12.70;7.23;;;5.60;99.90;;;;;;4949537;28;20927;-76
2023/04/15 05:47:49;;;;;;;10.13;6.40;;;5.60;99.90;;;;;;4949761;28;20466;-76
2023/04/15 05:50:16;;;;;;;6.50;5.67;;;5.60;99.90;;;;;;4954129;28;20460;-76
2023/04/15 05:52:42;;;;;;;10.30;6.30;;;5.60;99.90;;;;;;4954753;28;20498;-75
2023/04/15 05:55:09;;;;;;;10.83;7.23;;;5.60;99.90;;;;;;4950799;28;20466;-75
2023/04/15 05:57:36;;;;;;;11.50;6.60;;;5.60;99.90;;;;;;4953413;28;20999;-75
2023/04/15 06:00:05;;;;;;;11.37;6.87;;;5.70;99.90;;;;;;4950660;28;20465;-76
2023/04/15 06:02:32;;;;;;;13.77;6.93;;;5.70;99.90;;;;;;4953993;28;20466;-76
2023/04/15 06:04:59;;;;;;;17.87;7.70;;;5.70;99.90;;;;;;4949793;28;20453;-77
2023/04/15 06:07:26;;;;;;;11.10;6.90;;;5.80;99.90;;;;;;4955071;28;20491;-75
2023/04/15 06:09:53;;;;;;;11.93;7.00;;;5.80;99.90;;;;;;4950023;28;20467;-76
2023/04/15 06:12:19;;;;;;;14.90;7.40;;;5.90;99.90;;;;;;4949681;28;20531;-77
2023/04/15 06:14:46;;;;;;;10.37;6.77;;;6.00;99.90;;;;;;4949387;28;20915;-76
2023/04/15 06:17:17;;;;;;;10.77;7.37;;;6.00;99.90;;;;;;4957268;28;20526;-76
2023/04/15 06:19:43;;;;;;;11.60;6.90;;;6.10;99.90;;;;;;4949643;28;20507;-77
2023/04/15 06:22:10;;;;;;;14.03;6.80;;;6.20;99.90;;;;;;4956783;28;21013;-76
2023/04/15 06:24:37;;;;;;;10.93;6.77;;;6.20;99.90;;;;;;4957076;28;20461;-77
2023/04/15 06:27:04;;;;;;;9.17;7.17;;;6.30;99.90;;;;;;4960392;28;20464;-78
2023/04/15 06:29:30;;;;;;;13.20;8.30;;;6.40;99.90;;;;;;4957805;28;20454;-78
2023/04/15 06:31:57;;;;;;;8.50;6.63;;;6.40;99.90;;;;;;4968491;28;20828;-79
2023/04/15 06:34:25;;;;;;;8.87;6.60;;;6.50;99.90;;;;;;4964483;28;20500;-77
2023/04/15 06:36:53;;;;;;;13.13;7.37;;;6.60;99.90;;;;;;4955929;28;20451;-78
2023/04/15 06:39:20;;;;;;;12.83;7.17;;;6.70;99.90;;;;;;4959048;28;20506;-77
2023/04/15 06:41:46;;;;;;;11.33;7.13;;;6.70;99.90;;;;;;4957390;28;20487;-77
2023/04/15 06:44:13;;;;;;;10.40;7.53;;;6.80;99.90;;;;;;4957846;28;20463;-77
2023/04/15 06:46:40;;;;;;;11.17;7.30;;;6.90;99.90;;;;;;4962552;28;20516;-76
2023/04/15 06:49:06;;;;;;;11.50;7.43;;;6.90;99.90;;;;;;4952691;28;20462;-76
2023/04/15 06:51:36;;;;;;;9.70;6.70;;;7.00;99.90;;;;;;4960188;28;21034;-76
2023/04/15 06:54:04;;;;;;;9.73;8.33;;;7.10;99.90;;;;;;4952301;28;20497;-77
2023/04/15 06:56:31;;;;;;;15.90;7.87;;;7.10;99.90;;;;;;4962191;28;20555;-76
2023/04/15 06:58:58;;;;;;;11.40;8.57;;;7.20;99.90;;;;;;4954579;28;20941;-77
2023/04/15 07:01:24;;;;;;;19.27;7.87;;;7.30;99.90;;;;;;4953564;28;20533;-76
2023/04/15 07:03:51;;;;;;;10.20;7.20;;;7.40;99.90;;;;;;4953427;28;20516;-77
2023/04/15 07:06:18;;;;;;;11.83;6.80;;;7.60;99.90;;;;;;4959005;28;20454;-77
2023/04/15 07:08:46;;;;;;;17.03;7.70;;;7.70;99.90;;;;;;4955818;28;20477;-77
2023/04/15 07:11:13;;;;;;;13.87;7.43;;;7.90;99.90;;;;;;4952252;28;20539;-78
2023/04/15 07:13:39;;;;;;;14.40;8.30;;;8.00;99.90;;;;;;4959755;28;21023;-78
2023/04/15 07:16:06;;;;;;;10.80;6.83;;;8.20;99.90;;;;;;4964221;28;20458;-78
2023/04/15 07:18:33;;;;;;;12.40;8.13;;;8.50;99.90;;;;;;4952392;28;20466;-77
2023/04/15 07:20:59;;;;;;;17.60;9.00;;;8.80;99.90;;;;;;4952074;28;20485;-77
2023/04/15 07:23:26;;;;;;;12.27;9.17;;;8.90;99.90;;;;;;4952170;28;20454;-77
2023/04/15 07:25:54;;;;;;;14.37;9.00;;;8.90;99.90;;;;;;4951538;28;20515;-77
2023/04/15 07:28:21;;;;;;;18.37;9.00;;;9.00;99.90;;;;;;4953792;28;20519;-77
2023/04/15 07:30:48;;;;;;;14.13;8.93;;;9.00;99.90;;;;;;4952765;28;20461;-76
2023/04/15 07:33:15;;;;;;;10.70;8.43;;;9.10;99.90;;;;;;4961820;28;20543;-77
2023/04/15 07:35:42;;;;;;;13.17;8.90;;;9.20;99.90;;;;;;4956052;28;20464;-77
2023/04/15 07:38:08;;;;;;;14.27;8.50;;;9.20;99.90;;;;;;4958883;28;20541;-76
2023/04/15 07:40:35;;;;;;;12.50;8.20;;;9.20;99.90;;;;;;4951705;28;20457;-76
2023/04/15 07:43:03;;;;;;;10.93;7.80;;;9.30;99.90;;;;;;4954392;28;20450;-77
2023/04/15 07:45:30;;;;;;;14.40;7.97;;;9.40;99.90;;;;;;4956706;28;20867;-72
2023/04/15 07:47:56;;;;;;;11.73;7.00;;;9.50;99.90;;;;;;4951757;28;20460;-72
2023/04/15 07:50:24;;;;;;;18.73;7.00;;;9.70;99.90;;;;;;4953236;28;20454;-71
2023/04/15 07:52:51;;;;;;;18.23;8.30;;;10.10;99.90;;;;;;4951645;28;20880;-78
2023/04/15 07:55:20;;;;;;;12.20;7.20;;;10.50;99.90;;;;;;4959407;28;20476;-78
2023/04/15 07:57:47;;;;;;;9.33;6.70;;;10.60;99.90;;;;;;4956827;28;20980;-78
2023/04/15 08:00:17;;;;;;;7.87;6.80;;;10.50;99.90;;;;;;4951751;28;20458;-73
2023/04/15 08:02:45;;;;;;;10.07;6.83;;;10.50;99.90;;;;;;4958466;28;20489;-77
2023/04/15 08:05:13;;;;;;;10.07;7.20;;;10.40;99.90;;;;;;4962136;28;20496;-74
2023/04/15 08:07:40;;;;;;;9.40;6.80;;;10.20;99.90;;;;;;4959630;28;20450;-76
2023/04/15 08:10:08;;;;;;;20.30;6.90;;;10.20;99.90;;;;;;4954004;28;20853;-77
2023/04/15 08:12:34;;;;;;;7.90;7.07;;;10.20;99.90;;;;;;4956264;28;20474;-78
2023/04/15 08:15:01;;;;;;;8.70;7.57;;;10.20;99.90;;;;;;4956498;28;20484;-78
2023/04/15 08:17:29;;;;;;;8.50;6.57;;;10.30;99.90;;;;;;4956370;28;20509;-78
2023/04/15 08:19:56;;;;;;;11.33;7.03;;;10.60;99.90;;;;;;4951497;28;20458;-78
2023/04/15 08:22:23;;;;;;;9.13;6.90;;;10.90;99.90;;;;;;4964104;28;20481;-78
2023/04/15 08:24:50;;;;;;;10.67;7.00;;;11.10;99.90;;;;;;4950600;28;20454;-77
2023/04/15 08:27:17;;;;;;;8.50;6.13;;;11.40;99.90;;;;;;4954398;28;20671;-77
2023/04/15 08:29:45;;;;;;;9.23;6.10;;;11.60;99.90;;;;;;4952522;28;20470;-77
2023/04/15 08:32:11;;;;;;;8.40;6.67;;;11.70;99.90;;;;;;4950783;28;20469;-77
2023/04/15 08:34:39;;;;;;;7.90;6.90;;;11.90;99.90;;;;;;4951069;28;20547;-77
2023/04/15 08:37:07;;;;;;;9.40;6.27;;;12.00;99.90;;;;;;4951029;28;20462;-78
2023/04/15 08:39:33;;;;;;;11.30;5.90;;;12.20;99.90;;;;;;4958093;28;20540;-77
2023/04/15 08:42:02;;;;;;;7.17;6.07;;;12.20;99.90;;;;;;4958627;28;20469;-77
2023/04/15 08:44:31;;;;;;;10.30;5.57;;;12.10;99.90;;;;;;4950699;28;20515;-77
2023/04/15 08:47:01;;;;;;;10.03;6.10;;;12.10;99.90;;;;;;4953617;28;20462;-77
2023/04/15 08:49:29;;;;;;;8.33;6.00;;;12.00;99.90;;;;;;4957243;28;20467;-77
2023/04/15 08:51:59;;;;;;;6.00;5.27;;;11.90;99.90;;;;;;4954928;28;20527;-77
2023/04/15 08:54:26;;;;;;;7.07;5.40;;;11.90;99.90;;;;;;4964997;28;20485;-77
2023/04/15 08:56:54;;;;;;;10.97;6.50;;;11.90;99.90;;;;;;4957020;28;20468;-77
2023/04/15 08:59:21;;;;;;;8.50;6.23;;;11.80;99.90;;;;;;4960298;28;20461;-77
2023/04/15 09:01:49;;;;;;;7.00;5.87;;;12.00;99.90;;;;;;4950855;28;20488;-77
2023/04/15 09:04:17;;;;;;;8.97;6.30;;;12.00;99.90;;;;;;4950860;28;20446;-77
2023/04/15 09:06:43;;;;;;;7.03;6.03;;;12.00;99.90;;;;;;4958026;28;20506;-77
2023/04/15 09:09:13;;;;;;;6.80;5.43;;;11.90;99.90;;;;;;4959070;28;20449;-77
2023/04/15 09:11:39;;;;;;;7.40;5.60;;;11.90;99.90;;;;;;4950857;28;20514;-77
2023/04/15 09:14:06;;;;;;;9.90;6.30;;;11.80;99.90;;;;;;4960153;28;20497;-78
2023/04/15 09:16:56;;;;;;;11.97;5.70;;;11.70;99.90;;;;;;4950320;28;20954;-78
2023/04/15 09:19:24;;;;;;;8.73;5.07;;;11.60;99.90;;;;;;4950556;28;20857;-78
2023/04/15 09:21:53;;;;;;;7.20;4.87;;;11.50;99.90;;;;;;4958345;28;20477;-78
2023/04/15 09:24:21;;;;;;;9.93;6.27;;;11.40;99.90;;;;;;4957700;28;20445;-78
2023/04/15 09:26:51;;;;;;;8.67;5.17;;;11.30;99.90;;;;;;4960524;28;20461;-77
2023/04/15 09:29:18;;;;;;;7.03;5.10;;;11.20;99.90;;;;;;4950347;28;20480;-78
2023/04/15 09:31:45;;;;;;;6.10;4.50;;;11.10;99.90;;;;;;4957042;28;20489;-78
2023/04/15 09:34:12;;;;;;;8.83;5.60;;;11.10;99.90;;;;;;4960927;28;21008;-76
2023/04/15 09:36:52;;;;;;;5.87;5.27;;;11.10;99.90;;;;;;4955288;28;20450;-76
2023/04/15 09:39:21;;;;;;;8.03;5.50;;;11.10;99.90;;;;;;4964772;28;20450;-77
2023/04/15 09:42:03;;;;;;;7.70;5.03;;;11.10;99.90;;;;;;4950025;28;20476;-77
2023/04/15 09:44:30;;;;;;;6.00;4.73;;;11.10;99.90;;;;;;4951746;28;20462;-76
2023/04/15 09:46:56;;;;;;;7.03;4.77;;;11.10;99.90;;;;;;4958874;28;20497;-78
2023/04/15 09:49:23;;;;;;;8.57;4.90;;;11.10;99.90;;;;;;4958053;28;20480;-78
2023/04/15 09:51:50;;;;;;;8.83;5.50;;;11.10;99.90;;;;;;4950724;28;20477;-76
2023/04/15 09:54:21;;;;;;;5.37;4.80;;;11.10;99.90;;;;;;4953473;28;21056;-76
2023/04/15 09:56:47;;;;;;;7.00;4.43;;;11.10;99.90;;;;;;4959489;28;20948;-76
2023/04/15 09:59:14;;;;;;;5.17;4.67;;;11.10;99.90;;;;;;4958246;28;20462;-76
2023/04/15 10:01:42;;;;;;;15.40;4.47;;;11.00;99.90;;;;;;4951165;28;20474;-69
2023/04/15 10:04:09;;;;;;;5.90;4.20;;;11.20;99.90;;;;;;4949534;28;20454;-70
2023/04/15 10:06:36;;;;;;;5.00;4.13;;;11.80;99.90;;;;;;4955408;28;20457;-69
2023/04/15 10:09:03;;;;;;;6.53;4.00;;;12.40;99.90;;;;;;4951337;28;20868;-69
2023/04/15 10:11:33;;;;;;;6.63;4.40;;;12.90;99.90;;;;;;4958949;28;20935;-76
2023/04/15 10:14:00;;;;;;;4.57;4.17;;;13.20;99.90;;;;;;4950058;28;20547;-76
2023/04/15 10:16:28;;;;;;;6.20;5.13;;;12.60;99.90;;;;;;4952687;28;20473;-71
2023/04/15 10:18:57;;;;;;;4.97;4.47;;;12.20;99.90;;;;;;4970063;28;20461;-77
2023/04/15 10:21:24;;;;;;;6.47;4.60;;;11.80;99.90;;;;;;4977842;28;20564;-77
2023/04/15 10:23:51;;;;;;;5.20;4.70;;;11.70;99.90;;;;;;4964505;28;20457;-77
2023/04/15 10:26:18;;;;;;;8.73;4.57;;;11.60;99.90;;;;;;4976419;28;20514;-77
2023/04/15 10:28:47;;;;;;;5.90;4.77;;;11.50;99.90;;;;;;4969618;28;20452;-77
2023/04/15 10:31:15;;;;;;;5.33;4.90;;;11.30;99.90;;;;;;4968441;28;20515;-77
2023/04/15 10:33:42;;;;;;;6.77;5.40;;;11.20;99.90;;;;;;4968421;28;20458;-77
2023/04/15 10:36:09;;;;;;;6.07;4.87;;;10.90;99.90;;;;;;4968548;28;20530;-78
2023/04/15 10:38:40;;;;;;;6.27;4.90;;;10.70;99.90;;;;;;4966310;28;20952;-77
2023/04/15 10:41:15;;;;;;;5.23;4.73;;;10.50;99.90;;;;;;4960142;28;20488;-77
2023/04/15 10:43:49;;;;;;;7.63;5.80;;;10.30;99.90;;;;;;4965497;28;20449;-76
2023/04/15 10:46:19;;;;;;;5.33;4.60;;;10.20;99.90;;;;;;4962879;28;20456;-77
2023/04/15 10:48:50;;;;;;;4.60;4.17;;;10.10;99.90;;;;;;4965570;28;20437;-76
2023/04/15 10:51:17;;;;;;;4.97;4.57;;;10.00;99.90;;;;;;4958262;28;20483;-77
2023/04/15 10:53:44;;;;;;;4.47;3.93;;;10.00;99.90;;;;;;4965041;28;20991;-77
2023/04/15 10:56:11;;;;;;;4.80;4.30;;;10.10;99.90;;;;;;4966940;28;20522;-78
2023/04/15 10:58:44;;;;;;;4.40;3.93;;;10.10;99.90;;;;;;4962460;28;20802;-77
2023/04/15 11:01:13;;;;;;;5.10;4.50;;;10.10;99.90;;;;;;4955551;28;20992;-78
2023/04/15 11:03:42;;;;;;;5.33;4.00;;;10.10;99.90;;;;;;4960034;28;20841;-77
2023/04/15 11:06:09;;;;;;;5.70;4.80;;;10.10;99.90;;;;;;4965020;28;20457;-76
2023/04/15 11:08:57;;;;;;;8.63;4.90;;;10.10;99.90;;;;;;4962446;28;20510;-77
2023/04/15 11:11:39;;;;;;;6.33;5.30;;;10.10;99.90;;;;;;4968189;28;20485;-77
2023/04/15 11:14:14;;;;;;;5.10;4.60;;;10.20;99.90;;;;;;4971257;28;20467;-77
2023/04/15 11:16:44;;;;;;;5.67;4.70;;;10.20;99.90;;;;;;4970536;28;20511;-71
2023/04/15 11:19:11;;;;;;;5.70;5.00;;;10.10;99.90;;;;;;4970510;28;20524;-72
2023/04/15 11:21:38;;;;;;;7.07;5.53;;;10.10;99.90;;;;;;4971153;28;20479;-72
2023/04/15 11:24:05;;;;;;;8.00;7.20;;;10.00;99.90;;;;;;4970969;28;20456;-73
2023/04/15 11:26:31;;;;;;;9.83;5.80;;;9.90;99.90;;;;;;4970797;28;20461;-73
2023/04/15 11:29:00;;;;;;;4.80;4.40;;;9.90;99.90;;;;;;4968787;28;20461;-73
2023/04/15 11:31:29;;;;;;;4.70;4.20;;;9.90;99.90;;;;;;4965627;28;20556;-73
2023/04/15 11:34:00;;;;;;;4.90;4.50;;;9.90;99.90;;;;;;4966075;28;20532;-73
2023/04/15 11:36:28;;;;;;;7.53;4.87;;;9.90;99.90;;;;;;4959404;28;20615;-74
2023/04/15 11:38:57;;;;;;;6.77;5.10;;;9.90;99.90;;;;;;4967477;28;20514;-72
2023/04/15 11:41:24;;;;;;;5.20;4.70;;;9.90;99.90;;;;;;4970680;28;20480;-74
2023/04/15 11:43:51;;;;;;;4.97;4.57;;;9.80;99.90;;;;;;4971079;28;20460;-75
2023/04/15 11:46:18;;;;;;;6.80;5.73;;;9.80;99.90;;;;;;4967066;28;20450;-75
2023/04/15 11:48:46;;;;;;;6.87;6.10;;;9.80;99.90;;;;;;4959618;28;20454;-75
2023/04/15 11:51:15;;;;;;;5.40;4.90;;;9.80;99.90;;;;;;4967151;28;20519;-76
2023/04/15 11:53:44;;;;;;;6.63;5.77;;;9.70;99.90;;;;;;4959508;28;20457;-75
2023/04/15 11:56:17;;;;;;;6.03;5.30;;;9.70;99.90;;;;;;4965461;28;20488;-74
2023/04/15 11:58:45;;;;;;;6.47;5.47;;;9.60;99.90;;;;;;4966387;28;20514;-74
2023/04/15 12:01:11;;;;;;;6.60;5.60;;;9.60;99.90;;;;;;4969719;28;20860;-74
2023/04/15 12:03:41;;;;;;;6.13;5.10;;;9.70;99.90;;;;;;4970113;28;20514;-74
2023/04/15 12:06:15;;;;;;;8.20;6.20;;;9.70;99.90;;;;;;4969427;28;21005;-74
2023/04/15 12:08:59;;;;;;;9.03;6.20;;;9.70;99.90;;;;;;4969833;28;20876;-73
2023/04/15 12:11:35;;;;;;;6.10;5.30;;;9.70;99.90;;;;;;4968547;28;20564;-73
2023/04/15 12:14:08;;;;;;;7.67;5.40;;;9.60;99.90;;;;;;4970111;28;20514;-73
2023/04/15 12:16:36;;;;;;;7.60;4.87;;;9.60;99.90;;;;;;4963659;28;20483;-74
2023/04/15 12:19:06;;;;;;;5.43;4.93;;;9.70;99.90;;;;;;4970235;28;20514;-77
2023/04/15 12:21:35;;;;;;;5.53;5.03;;;9.60;99.90;;;;;;4960073;28;20476;-73
2023/04/15 12:24:05;;;;;;;6.40;5.80;;;9.60;99.90;;;;;;4965831;28;20448;-73
2023/04/15 12:26:35;;;;;;;8.30;5.90;;;9.50;99.90;;;;;;4966615;28;20453;-74
2023/04/15 12:29:03;;;;;;;6.47;5.87;;;9.50;99.90;;;;;;4969544;28;20519;-72
2023/04/15 12:31:30;;;;;;;6.70;5.20;;;9.50;99.90;;;;;;4969277;28;20481;-74
2023/04/15 12:33:58;;;;;;;7.80;5.17;;;9.50;99.90;;;;;;4969480;28;20468;-73
2023/04/15 12:36:24;;;;;;;5.20;4.70;;;9.50;99.90;;;;;;4970036;28;20493;-72
2023/04/15 12:38:51;;;;;;;5.80;4.37;;;9.50;99.90;;;;;;4969530;28;20465;-72
2023/04/15 12:41:20;;;;;;;6.23;4.40;;;9.60;99.90;;;;;;4969656;28;20526;-72
2023/04/15 12:43:47;;;;;;;6.40;4.73;;;9.50;99.90;;;;;;4967798;28;20857;-76
2023/04/15 12:46:14;;;;;;;6.77;4.50;;;9.50;99.90;;;;;;4970047;28;20510;-76
2023/04/15 12:48:41;;;;;;;6.27;4.67;;;9.60;99.90;;;;;;4964069;28;20453;-76
2023/04/15 12:51:08;;;;;;;5.63;4.67;;;9.50;99.90;;;;;;4964490;28;20509;-76
2023/04/15 12:53:34;;;;;;;5.30;4.80;;;9.50;99.90;;;;;;4962456;28;21013;-75